Time;durP1;ratioP1;P1;durP2;ratioP2;P2;SDS_P1;SDS_P2;PMS_P1;PMS_P2;Temp;Humidity;BMP_temperature;BMP_pressure;BME280_temperature;BME280_humidity;BME280_pressure;Samples;Min_cycle;Max_cycle;Signal;HPM_P1;HPM_P2
2022/07/11 00:00:27;;;;;;;5.37;2.73;;;;;;;19.47;46.30;99895.44;123503;1099;104300;-74
2022/07/11 00:03:14;;;;;;;5.37;3.10;;;;;;;19.44;46.37;99900.78;123522;1099;104421;-75
2022/07/11 00:05:45;;;;;;;7.85;2.85;;;;;;;19.38;46.80;99902.62;123657;1099;104284;-75
2022/07/11 00:08:19;;;;;;;8.20;3.70;;;;;;;19.37;46.84;99907.95;123741;1099;104239;-75
2022/07/11 00:10:51;;;;;;;7.27;3.10;;;;;;;19.34;46.66;99892.89;123603;1099;104361;-75
2022/07/11 00:13:22;;;;;;;8.23;3.27;;;;;;;19.33;47.05;99907.08;123591;1099;104308;-76
2022/07/11 00:15:54;;;;;;;5.97;2.90;;;;;;;19.30;47.39;99911.55;123500;1099;104403;-76
2022/07/11 00:18:25;;;;;;;5.25;2.70;;;;;;;19.22;47.02;99900.98;123238;1099;104377;-76
2022/07/11 00:20:56;;;;;;;5.97;2.80;;;;;;;19.19;47.42;99909.87;123617;1099;104469;-75
2022/07/11 00:23:28;;;;;;;7.47;3.00;;;;;;;19.13;47.64;99917.90;123570;1099;104265;-75
2022/07/11 00:25:59;;;;;;;9.05;3.50;;;;;;;19.09;47.23;99910.86;123668;1099;104325;-76
2022/07/11 00:28:31;;;;;;;4.83;2.70;;;;;;;19.08;47.75;99916.19;123542;1099;104402;-76
2022/07/11 00:31:02;;;;;;;7.90;3.10;;;;;;;19.01;47.38;99913.58;123610;1099;104249;-75
2022/07/11 00:33:34;;;;;;;4.10;3.00;;;;;;;18.96;47.84;99912.72;123568;1099;104241;-76
2022/07/11 00:36:06;;;;;;;8.87;3.47;;;;;;;18.90;47.97;99925.18;123593;1099;104354;-75
2022/07/11 00:38:37;;;;;;;6.60;3.00;;;;;;;18.84;48.12;99919.03;123646;1099;104264;-76
2022/07/11 00:41:10;;;;;;;7.63;3.20;;;;;;;18.76;48.22;99914.61;123589;1099;104331;-75
2022/07/11 00:43:43;;;;;;;5.30;2.93;;;;;;;18.73;48.31;99909.32;123553;1099;104306;-75
2022/07/11 00:46:15;;;;;;;9.15;2.98;;;;;;;18.69;48.63;99912.00;123735;1099;104264;-76
2022/07/11 00:48:46;;;;;;;5.20;2.93;;;;;;;18.66;48.34;99913.81;123288;1099;104312;-75
2022/07/11 00:51:20;;;;;;;5.13;3.20;;;;;;;18.63;48.76;99914.70;123546;1099;104316;-75
2022/07/11 00:53:53;;;;;;;7.00;3.30;;;;;;;18.57;49.22;99901.45;123665;1098;104353;-75
2022/07/11 00:56:26;;;;;;;5.60;2.87;;;;;;;18.52;49.32;99900.61;123582;1099;104189;-74
2022/07/11 00:58:58;;;;;;;5.73;3.10;;;;;;;18.47;49.26;99905.95;123376;1099;104236;-74
2022/07/11 01:01:30;;;;;;;6.23;3.13;;;;;;;18.47;49.06;99908.61;123620;1099;104309;-75
2022/07/11 01:04:02;;;;;;;5.77;2.90;;;;;;;18.49;49.11;99903.28;123618;1099;104268;-76
2022/07/11 01:06:33;;;;;;;5.30;3.00;;;;;;;18.48;49.58;99909.48;123463;1099;104338;-75
2022/07/11 01:09:05;;;;;;;5.40;3.13;;;;;;;18.45;49.41;99915.72;123602;1099;105543;-75
2022/07/11 01:11:37;;;;;;;4.50;3.20;;;;;;;18.43;49.70;99911.30;123692;1099;104265;-75
2022/07/11 01:14:08;;;;;;;3.65;3.00;;;;;;;18.38;49.99;99903.34;123604;1099;104273;-75
2022/07/11 01:16:40;;;;;;;5.37;3.00;;;;;;;18.33;49.80;99902.50;123911;1098;104337;-75
2022/07/11 01:19:11;;;;;;;6.37;3.07;;;;;;;18.29;50.26;99908.70;123594;1099;104383;-75
2022/07/11 01:21:53;;;;;;;7.93;3.13;;;;;;;18.26;50.29;99906.06;123647;1099;104351;-75
2022/07/11 01:24:25;;;;;;;8.25;3.10;;;;;;;18.22;50.40;99905.22;123648;1099;104690;-75
2022/07/11 01:26:57;;;;;;;9.13;3.00;;;;;;;18.21;50.88;99906.09;123803;1098;104264;-75
2022/07/11 01:29:29;;;;;;;6.13;3.17;;;;;;;18.20;51.40;99909.66;123346;1099;104367;-75
2022/07/11 01:32:00;;;;;;;3.63;2.73;;;;;;;18.14;51.31;99910.56;123379;1099;104399;-75
2022/07/11 01:34:31;;;;;;;8.47;2.90;;;;;;;18.09;51.76;99915.02;123519;1099;104245;-75
2022/07/11 01:37:03;;;;;;;5.80;2.90;;;;;;;18.06;51.48;99906.16;123402;1099;104242;-75
2022/07/11 01:39:34;;;;;;;6.25;3.00;;;;;;;18.02;51.97;99905.30;123531;1099;104389;-75
2022/07/11 01:42:06;;;;;;;4.37;2.87;;;;;;;18.00;51.87;99901.78;123623;1099;104344;-75
2022/07/11 01:44:37;;;;;;;3.00;2.37;;;;;;;18.00;51.38;99907.09;123642;1099;104393;-75
2022/07/11 01:47:09;;;;;;;4.80;2.80;;;;;;;18.01;51.66;99905.31;123700;1099;104297;-76
2022/07/11 01:49:40;;;;;;;4.53;2.80;;;;;;;18.01;52.14;99911.49;123718;1099;104248;-75
2022/07/11 01:52:13;;;;;;;4.63;2.83;;;;;;;18.00;52.07;99908.84;123685;1099;104286;-75
2022/07/11 01:54:44;;;;;;;5.30;3.20;;;;;;;18.01;52.74;99919.45;123781;1099;104255;-76
2022/07/11 01:57:16;;;;;;;6.30;2.80;;;;;;;17.98;52.86;99927.42;123604;1099;104334;-76
2022/07/11 01:59:47;;;;;;;3.90;2.70;;;;;;;17.94;52.64;99920.39;123489;1099;104325;-75
2022/07/11 02:02:19;;;;;;;4.37;2.63;;;;;;;17.91;52.46;99923.05;123463;1099;104331;-75
2022/07/11 02:04:50;;;;;;;3.53;2.70;;;;;;;17.89;52.72;99925.71;123781;1099;104229;-75
2022/07/11 02:10:09;;;;;;;8.47;3.27;;;;;;;17.88;53.15;99923.94;123504;1099;104425;-75
2022/07/11 02:12:40;;;;;;;8.93;3.00;;;;;;;17.86;52.98;99927.47;123683;1099;104310;-75
2022/07/11 02:15:13;;;;;;;5.27;2.80;;;;;;;17.85;52.99;99933.66;123586;1099;104715;-75
2022/07/11 02:17:44;;;;;;;3.97;2.90;;;;;;;17.88;52.80;99939.86;123517;1099;104268;-74
2022/07/11 02:20:16;;;;;;;3.47;2.70;;;;;;;17.86;52.75;99938.95;123472;1099;104194;-75
2022/07/11 02:22:48;;;;;;;9.43;3.00;;;;;;;17.84;52.84;99942.48;123557;1099;104801;-74
2022/07/11 02:25:21;;;;;;;5.23;2.83;;;;;;;17.85;53.01;99944.27;123500;1099;104309;-74
2022/07/11 02:27:52;;;;;;;4.80;2.60;;;;;;;17.89;53.41;99948.73;123546;1099;104236;-74
2022/07/11 02:30:23;;;;;;;3.20;2.70;;;;;;;17.88;53.23;99946.91;123545;1099;104197;-75
2022/07/11 02:32:56;;;;;;;6.00;2.90;;;;;;;17.85;53.18;99944.27;123506;1099;104346;-75
2022/07/11 02:35:28;;;;;;;5.77;2.60;;;;;;;17.82;53.23;99954.89;123443;1099;104312;-76
2022/07/11 02:37:59;;;;;;;5.87;2.80;;;;;;;17.81;53.54;99954.02;123477;1099;104296;-75
2022/07/11 02:40:31;;;;;;;3.53;2.70;;;;;;;17.78;53.42;99954.03;123548;1099;104216;-75
2022/07/11 02:43:02;;;;;;;7.43;2.80;;;;;;;17.75;54.00;99959.34;123739;1099;104265;-75
2022/07/11 02:45:36;;;;;;;4.60;2.80;;;;;;;17.73;53.71;99956.69;123733;1099;104284;-75
2022/07/11 02:48:08;;;;;;;4.50;3.20;;;;;;;17.71;53.92;99952.27;123631;1099;104332;-75
2022/07/11 02:50:39;;;;;;;10.17;3.20;;;;;;;17.68;54.60;99949.61;123670;1098;104335;-75
2022/07/11 02:53:10;;;;;;;6.20;2.80;;;;;;;17.66;54.77;99948.75;123779;1099;104233;-75
2022/07/11 02:55:43;;;;;;;7.13;2.73;;;;;;;17.64;54.78;99942.54;123729;1099;104325;-75
2022/07/11 02:58:17;;;;;;;5.63;2.97;;;;;;;17.59;54.85;99940.80;123589;1099;104754;-76
2022/07/11 03:00:49;;;;;;;8.23;3.00;;;;;;;17.58;54.76;99943.45;123553;1099;104336;-74
2022/07/11 03:03:20;;;;;;;5.67;2.87;;;;;;;17.57;55.21;99939.89;123522;1099;104347;-75
2022/07/11 03:05:51;;;;;;;7.37;2.90;;;;;;;17.58;55.00;99948.76;123474;1099;104331;-74
2022/07/11 03:08:23;;;;;;;6.90;3.30;;;;;;;17.57;55.38;99954.94;123592;1099;104319;-75
2022/07/11 03:10:54;;;;;;;7.73;2.77;;;;;;;17.51;55.46;99949.64;123532;1099;104316;-76
2022/07/11 03:13:26;;;;;;;3.43;2.63;;;;;;;17.50;55.36;99951.42;123566;1099;109229;-74
2022/07/11 03:16:01;;;;;;;3.70;2.77;;;;;;;17.49;55.80;99948.77;123606;1099;104264;-75
2022/07/11 03:18:33;;;;;;;8.67;3.10;;;;;;;17.51;55.43;99949.64;123603;1099;104268;-75
2022/07/11 03:21:05;;;;;;;4.27;2.70;;;;;;;17.51;55.48;99950.52;123651;1099;104715;-74
2022/07/11 03:23:37;;;;;;;5.15;2.60;;;;;;;17.53;55.83;99951.42;123571;1099;104278;-76
2022/07/11 03:26:08;;;;;;;5.20;2.57;;;;;;;17.55;55.70;99960.24;123522;1099;104432;-76
2022/07/11 03:28:40;;;;;;;5.73;2.70;;;;;;;17.56;55.87;99962.02;123487;1099;104294;-75
2022/07/11 03:31:19;;;;;;;6.50;2.97;;;;;;;17.56;56.35;99966.42;123600;1099;104313;-75
2022/07/11 03:33:51;;;;;;;6.27;2.97;;;;;;;17.60;55.99;99976.16;123504;1099;104338;-75
2022/07/11 03:36:23;;;;;;;4.23;2.83;;;;;;;17.58;56.40;99962.89;123628;1099;104312;-75
2022/07/11 03:38:54;;;;;;;6.03;2.80;;;;;;;17.56;56.34;99962.02;123547;1099;104384;-75
2022/07/11 03:41:26;;;;;;;3.77;2.73;;;;;;;17.57;56.62;99963.77;123650;1099;104258;-75
2022/07/11 03:43:58;;;;;;;5.25;3.25;;;;;;;17.57;56.05;99965.55;123696;1099;104232;-75
2022/07/11 03:46:29;;;;;;;5.53;2.97;;;;;;;17.56;56.62;99975.28;123900;1099;104229;-76
2022/07/11 03:49:01;;;;;;;3.93;2.90;;;;;;;17.57;56.67;99966.42;123648;1098;104364;-75
2022/07/11 03:51:33;;;;;;;8.93;3.00;;;;;;;17.59;56.47;99969.98;123684;1099;104217;-75
2022/07/11 03:54:04;;;;;;;4.27;2.87;;;;;;;17.56;56.92;99972.63;123904;1099;104316;-75
2022/07/11 03:56:37;;;;;;;4.33;2.80;;;;;;;17.51;56.98;99971.73;123478;1099;104242;-74
2022/07/11 03:59:10;;;;;;;7.03;2.93;;;;;;;17.50;56.84;99969.98;123777;1099;104239;-76
2022/07/11 04:01:42;;;;;;;6.65;2.85;;;;;;;17.53;57.26;99977.94;123800;1099;104248;-76
2022/07/11 04:04:13;;;;;;;4.27;2.90;;;;;;;17.51;57.83;99979.69;123829;1098;104239;-75
2022/07/11 04:06:45;;;;;;;4.20;2.73;;;;;;;17.46;56.89;99973.52;123853;1099;104301;-76
2022/07/11 04:09:16;;;;;;;7.10;3.30;;;;;;;17.46;57.53;99992.08;123774;1099;104290;-76
2022/07/11 04:11:48;;;;;;;7.33;3.07;;;;;;;17.45;58.23;99981.47;123558;1099;104249;-75
2022/07/11 04:14:19;;;;;;;6.70;3.03;;;;;;;17.42;58.26;99983.25;123510;1099;104470;-76
2022/07/11 04:16:51;;;;;;;8.00;2.80;;;;;;;17.46;58.61;99989.43;123685;1099;104395;-75
2022/07/11 04:19:23;;;;;;;7.80;3.07;;;;;;;17.47;58.46;99996.52;123757;1099;104266;-75
2022/07/11 04:21:58;;;;;;;5.00;2.93;;;;;;;17.43;58.42;99994.73;123833;1099;104255;-75
2022/07/11 04:24:29;;;;;;;7.30;2.87;;;;;;;17.42;58.62;99999.17;123891;1099;104249;-76
2022/07/11 04:27:01;;;;;;;5.43;3.07;;;;;;;17.39;58.77;99999.17;123607;1099;104256;-76
2022/07/11 04:29:32;;;;;;;7.07;3.33;;;;;;;17.37;58.63;100003.59;123738;1099;104319;-76
2022/07/11 04:32:04;;;;;;;7.73;3.37;;;;;;;17.38;59.02;100007.13;123709;1098;104351;-76
2022/07/11 04:34:36;;;;;;;7.90;2.90;;;;;;;17.42;59.51;100015.08;123776;1099;104188;-75
2022/07/11 04:37:08;;;;;;;4.40;2.90;;;;;;;17.42;59.45;100009.78;123812;1099;104243;-76
2022/07/11 04:39:39;;;;;;;10.10;3.33;;;;;;;17.39;59.06;100016.83;123831;1098;104496;-76
2022/07/11 04:42:10;;;;;;;4.57;3.03;;;;;;;17.34;59.09;100011.55;123896;1098;104351;-76
2022/07/11 04:44:42;;;;;;;6.40;2.80;;;;;;;17.33;59.92;100024.81;123877;1098;104265;-76
2022/07/11 04:47:14;;;;;;;7.67;2.93;;;;;;;17.28;60.24;100029.20;124007;1099;104264;-76
2022/07/11 04:49:46;;;;;;;11.03;3.53;;;;;;;17.24;59.97;100023.90;123952;1099;104264;-76
2022/07/11 04:52:18;;;;;;;9.40;3.40;;;;;;;17.26;60.09;100031.85;124074;1099;104165;-76
2022/07/11 04:54:52;;;;;;;9.37;3.17;;;;;;;17.28;59.70;100031.86;123789;1099;104310;-77
2022/07/11 04:57:24;;;;;;;8.43;3.40;;;;;;;17.27;60.10;100028.33;124078;1099;104306;-75
2022/07/11 04:59:55;;;;;;;7.60;3.10;;;;;;;17.35;59.72;100038.95;123836;1099;104261;-76
2022/07/11 05:02:27;;;;;;;10.10;3.77;;;;;;;17.45;59.47;100043.34;123914;1099;104213;-76
2022/07/11 05:04:58;;;;;;;5.67;2.80;;;;;;;17.56;59.61;100051.31;123779;1099;104292;-75
2022/07/11 05:07:30;;;;;;;8.20;3.13;;;;;;;17.68;59.25;100050.44;124162;1099;104379;-76
2022/07/11 05:10:01;;;;;;;5.37;2.80;;;;;;;17.76;59.29;100052.21;123851;1099;104267;-76
2022/07/11 05:12:32;;;;;;;4.43;2.70;;;;;;;17.82;59.64;100061.91;123679;1099;104345;-76
2022/07/11 05:15:08;;;;;;;8.03;3.27;;;;;;;17.84;59.62;100053.95;124453;1098;104162;-77
2022/07/11 05:17:40;;;;;;;5.57;3.00;;;;;;;17.86;59.45;100046.89;124987;1098;104300;-77
2022/07/11 05:20:13;;;;;;;5.45;3.10;;;;;;;17.93;59.41;100061.94;124094;1099;104425;-77
2022/07/11 05:22:45;;;;;;;5.28;3.12;;;;;;;18.02;59.35;100064.58;124630;1099;104182;-76
2022/07/11 05:25:17;;;;;;;9.33;3.47;;;;;;;18.13;59.05;100069.88;124501;1099;104153;-78
2022/07/11 05:27:48;;;;;;;5.40;2.90;;;;;;;18.23;59.07;100063.66;124698;1099;104219;-77
2022/07/11 05:30:21;;;;;;;6.23;3.03;;;;;;;18.38;58.81;100069.81;124752;1099;103000;-77
2022/07/11 05:32:53;;;;;;;7.83;3.00;;;;;;;18.47;58.50;100070.66;124757;1099;103196;-77
2022/07/11 05:35:28;;;;;;;;;;;;;;;18.52;58.21;100062.67;125972;1099;104229;-78
2022/07/11 05:40:49;;;;;;;8.53;3.03;;;;;;;18.70;58.13;100064.38;125684;1099;104255;-77
2022/07/11 05:43:23;;;;;;;4.67;2.87;;;;;;;18.82;58.03;100063.42;124674;1099;104312;-77
2022/07/11 05:45:54;;;;;;;6.27;3.03;;;;;;;18.92;57.96;100051.02;124823;1098;104377;-77
2022/07/11 05:48:26;;;;;;;9.47;2.97;;;;;;;18.99;57.82;100055.39;124904;1099;104236;-76
2022/07/11 05:50:59;;;;;;;;;;;;;;;19.05;57.80;100055.35;125249;1099;104192;-78
2022/07/11 05:53:30;;;;;;;8.53;2.97;;;;;;;19.13;57.29;100052.65;125191;1099;104297;-78
2022/07/11 05:56:04;;;;;;;7.17;2.70;;;;;;;19.25;57.06;100052.56;126149;1099;103252;-76
2022/07/11 05:58:40;;;;;;;14.50;3.73;;;;;;;19.36;57.13;100050.70;124721;1099;104194;-77
2022/07/11 06:01:22;;;;;;;7.87;3.30;;;;;;;19.44;56.98;100057.75;117559;1099;10001554;-76
2022/07/11 06:03:54;;;;;;;5.83;2.90;;;;;;;19.54;56.76;100060.33;126967;1098;102481;-77
2022/07/11 06:06:33;;;;;;;11.93;3.53;;;;;;;19.63;56.22;100058.48;126833;1098;102969;-77
2022/07/11 06:09:06;;;;;;;8.40;3.07;;;;;;;19.71;56.54;100067.27;126860;1099;102726;-77
2022/07/11 06:14:40;;;;;;;7.43;2.57;;;;;;;19.84;55.20;100062.78;126217;1099;102417;-77
2022/07/11 06:17:17;;;;;;;7.07;3.00;;;;;;;19.80;55.30;100071.68;125625;1102;119388;-77
2022/07/11 06:20:04;;;;;;;4.33;2.73;;;;;;;19.81;54.75;100065.47;125010;1099;104104;-76
2022/07/11 06:22:37;;;;;;;7.37;3.00;;;;;;;19.84;55.25;100071.64;125383;1099;104203;-77
2022/07/11 06:25:11;;;;;;;5.70;2.90;;;;;;;19.90;55.06;100070.71;125171;1099;103557;-77
2022/07/11 06:27:44;;;;;;;6.75;3.00;;;;;;;19.96;54.82;100078.64;125309;1099;104178;-77
2022/07/11 06:30:16;;;;;;;6.83;3.20;;;;;;;20.06;55.28;100071.44;124585;1102;105027;-75
2022/07/11 06:32:50;;;;;;;8.33;3.00;;;;;;;20.12;54.62;100079.36;124597;1099;104163;-75
2022/07/11 06:35:26;;;;;;;8.07;2.90;;;;;;;20.08;54.48;100081.16;124459;1102;103025;-75
2022/07/11 06:37:59;;;;;;;8.57;2.83;;;;;;;20.07;54.22;100082.08;124490;1102;113947;-76
2022/07/11 06:40:31;;;;;;;6.73;2.73;;;;;;;20.07;53.92;100081.17;124586;1102;104492;-75
2022/07/11 06:43:04;;;;;;;5.53;2.80;;;;;;;20.11;53.91;100078.46;124566;1101;104162;-75
2022/07/11 06:45:39;;;;;;;8.57;3.00;;;;;;;20.15;53.66;100081.09;124717;1101;104233;-76
2022/07/11 06:48:11;;;;;;;7.10;3.40;;;;;;;20.14;54.11;100082.02;124483;1099;104840;-75
2022/07/11 06:50:43;;;;;;;5.23;2.97;;;;;;;20.13;53.31;100073.12;124555;1099;104233;-75
2022/07/11 06:53:24;;;;;;;10.73;3.40;;;;;;;20.09;53.98;100069.62;126106;1099;102077;-75
2022/07/11 06:55:57;;;;;;;9.93;3.20;;;;;;;20.18;53.02;100079.30;126083;1099;103046;-75
2022/07/11 06:58:37;;;;;;;6.10;3.03;;;;;;;20.27;53.17;100068.55;125934;1102;110272;-75
2022/07/11 07:01:10;;;;;;;6.73;2.87;;;;;;;20.28;53.11;100077.41;126083;1102;102803;-75
2022/07/11 07:03:56;;;;;;;5.70;2.92;;;;;;;20.39;52.77;100072.84;126058;1102;102470;-75
2022/07/11 07:06:28;;;;;;;11.67;3.37;;;;;;;20.51;53.15;100065.62;126077;1102;102794;-75
2022/07/11 07:09:02;;;;;;;7.50;2.87;;;;;;;20.64;52.15;100068.13;124980;1102;102402;-75
2022/07/11 07:11:43;;;;;;;8.00;3.17;;;;;;;20.85;52.07;100059.88;124890;1102;104303;-76
2022/07/11 07:14:17;;;;;;;9.58;3.05;;;;;;;21.01;51.82;100064.11;124657;1102;104303;-75
2022/07/11 07:20:11;;;;;;;4.30;2.83;;;;;;;21.30;51.14;100054.77;125408;1099;104268;-76
2022/07/11 07:22:46;;;;;;;12.77;2.90;;;;;;;21.44;51.21;100059.89;125022;1099;103010;-76
2022/07/11 07:25:23;;;;;;;8.73;2.80;;;;;;;21.60;49.62;100063.22;125432;1098;105347;-76
2022/07/11 07:28:33;;;;;;;;;;;;;;;;;;;;;
2022/07/11 07:31:29;;;;;;;13.40;3.30;;;;;;;21.81;49.09;100075.34;125502;1099;104171;-76
2022/07/11 07:37:16;;;;;;;8.07;2.70;;;;;;;22.00;47.30;100078.56;126011;1099;102466;-76
2022/07/11 07:40:14;;;;;;;10.13;2.90;;;;;;;22.07;47.58;100069.53;125915;1102;110970;-77
2022/07/11 07:43:35;;;;;;;4.40;3.00;;;;;;;22.14;48.04;100057.80;125850;1102;103799;-76
2022/07/11 07:46:17;;;;;;;3.70;2.67;;;;;;;22.43;47.63;100067.09;125961;1099;102591;-76
2022/07/11 07:48:49;;;;;;;5.67;2.50;;;;;;;22.59;47.12;100060.54;126006;1099;103030;-76
2022/07/11 07:51:35;;;;;;;10.93;3.13;;;;;;;22.69;46.58;100053.20;125971;1099;103876;-76
2022/07/11 07:54:10;;;;;;;7.77;3.27;;;;;;;22.78;45.97;100061.02;125921;1099;102797;-76
2022/07/11 07:56:44;;;;;;;5.42;2.47;;;;;;;22.89;46.32;100063.47;126016;1102;102880;-75
2022/07/11 07:59:16;;;;;;;7.62;2.67;;;;;;;23.05;45.27;100063.13;126128;1099;102301;-78
2022/07/11 08:01:57;;;;;;;8.73;3.07;;;;;;;23.15;45.96;100060.23;126752;1098;102713;-77
2022/07/11 08:04:33;;;;;;;7.30;2.63;;;;;;;23.33;45.67;100060.72;126750;1098;103642;-77
2022/07/11 08:07:16;;;;;;;9.23;2.93;;;;;;;23.51;45.67;100062.05;126736;1098;103409;-77
2022/07/11 08:09:54;;;;;;;8.83;3.08;;;;;;;23.66;45.23;100061.66;126072;1099;102073;-76
2022/07/11 08:12:30;;;;;;;8.10;2.83;;;;;;;23.75;44.47;100067.70;126936;1098;102394;-77
2022/07/11 08:15:09;;;;;;;6.53;2.87;;;;;;;23.92;44.11;100056.58;126171;1100;102689;-76
2022/07/11 08:17:57;;;;;;;7.63;2.87;;;;;;;24.02;43.50;100064.34;126699;1098;102653;-76
2022/07/11 08:20:37;;;;;;;7.93;2.60;;;;;;;24.14;42.77;100057.78;126091;1099;102413;-77
2022/07/11 08:23:26;;;;;;;8.13;2.50;;;;;;;24.27;42.94;100052.95;126146;1099;102166;-77
2022/07/11 08:26:41;;;;;;;;;;;;;;;;;;;;;
2022/07/11 08:29:37;;;;;;;9.70;2.80;;;;;;;24.52;42.30;100068.34;126970;1099;102406;-77
2022/07/11 08:32:35;;;;;;;12.13;3.20;;;;;;;24.38;42.19;100061.56;126886;1098;102554;-77
2022/07/11 08:35:15;;;;;;;6.60;2.77;;;;;;;24.38;42.39;100072.28;126192;1099;103078;-77
2022/07/11 08:41:48;;;;;;;6.13;2.63;;;;;;;24.39;41.91;100071.37;125902;1099;103091;-77
2022/07/11 08:44:54;;;;;;;6.23;2.80;;;;;;;24.19;41.31;100069.25;125952;1099;102953;-77
2022/07/11 08:47:32;;;;;;;7.57;2.63;;;;;;;24.17;41.69;100078.27;125254;1100;103874;-77
2022/07/11 08:50:37;;;;;;;12.53;3.03;;;;;;;24.18;42.17;100066.61;124929;1099;104252;-78
2022/07/11 08:53:30;;;;;;;8.77;2.80;;;;;;;24.09;41.67;100069.53;124944;1099;103612;-76
2022/07/11 08:59:13;;;;;;;9.93;3.27;;;;;;;24.20;41.54;100064.78;124920;1099;103935;-76
2022/07/11 09:01:58;;;;;;;10.73;2.83;;;;;;;24.08;41.14;100065.12;125277;1102;104262;-77
2022/07/11 09:04:39;;;;;;;8.15;2.50;;;;;;;24.08;41.07;100068.66;125403;1102;103417;-77
2022/07/11 09:07:46;;;;;;;11.17;2.90;;;;;;;24.10;39.92;100049.86;125684;1102;103197;-78
2022/07/11 09:11:01;;;;;;;7.00;2.70;;;;;;;24.13;40.91;100058.69;125477;1102;102858;-78
2022/07/11 09:13:53;;;;;;;7.65;2.98;;;;;;;24.28;40.76;100056.50;125553;1102;103483;-77
2022/07/11 09:16:32;;;;;;;8.10;2.80;;;;;;;24.41;40.04;100061.48;125405;1102;104335;-77
2022/07/11 09:19:27;;;;;;;10.20;3.03;;;;;;;24.49;40.00;100052.34;125441;1102;103419;-76
2022/07/11 09:25:42;;;;;;;7.10;2.63;;;;;;;24.60;39.48;100065.48;124898;1102;104948;-76
2022/07/11 09:28:16;;;;;;;4.67;2.47;;;;;;;24.59;38.72;100061.93;125016;1102;102469;-77
2022/07/11 09:30:51;;;;;;;5.07;2.57;;;;;;;24.55;38.96;100062.89;125010;1102;103351;-77
2022/07/11 09:33:25;;;;;;;5.67;2.50;;;;;;;24.58;38.83;100052.11;124895;1100;104172;-77
2022/07/11 09:36:20;;;;;;;7.33;2.80;;;;;;;24.71;39.54;100047.25;125576;1102;102483;-77
2022/07/11 09:39:12;;;;;;;;;;;;;;;;;;;;;
2022/07/11 09:42:05;;;;;;;9.13;2.60;;;;;;;24.87;38.25;100063.77;125206;1102;102919;-76
2022/07/11 09:44:43;;;;;;;4.90;2.37;;;;;;;24.80;38.20;100049.66;124860;1100;103047;-77
2022/07/11 09:47:29;;;;;;;9.83;2.53;;;;;;;24.74;38.32;100073.98;125598;1099;103792;-76
2022/07/11 09:50:12;;;;;;;4.23;2.50;;;;;;;24.69;37.98;100059.84;126314;1099;103287;-76
2022/07/11 09:53:02;;;;;;;11.77;2.87;;;;;;;24.68;38.11;100053.61;125302;1099;104219;-75
2022/07/11 09:55:41;;;;;;;13.43;2.80;;;;;;;24.75;38.01;100078.44;124864;1099;103550;-75
2022/07/11 09:58:20;;;;;;;8.63;2.50;;;;;;;24.68;38.45;100061.66;125364;1099;102149;-76
2022/07/11 10:00:54;;;;;;;6.50;2.90;;;;;;;24.67;38.50;100059.89;126508;1099;103368;-75
2022/07/11 10:03:33;;;;;;;4.93;2.23;;;;;;;24.64;38.13;100057.30;126774;1099;102229;-76
2022/07/11 10:06:23;;;;;;;6.67;2.33;;;;;;;24.64;37.49;100069.84;126862;1099;102343;-77
2022/07/11 10:09:04;;;;;;;8.03;2.57;;;;;;;24.66;37.79;100067.98;126794;1099;102610;-77
2022/07/11 10:15:10;;;;;;;16.53;3.40;;;;;;;24.47;37.15;100067.61;126756;1099;102919;-76
2022/07/11 10:17:59;;;;;;;8.10;2.60;;;;;;;24.40;37.32;100059.73;126485;1099;102718;-75
2022/07/11 10:20:42;;;;;;;5.53;2.50;;;;;;;24.58;37.29;100063.70;126891;1099;102201;-75
2022/07/11 10:23:29;;;;;;;3.57;2.20;;;;;;;24.77;36.95;100055.12;126769;1098;102979;-75
2022/07/11 10:26:12;;;;;;;8.70;2.43;;;;;;;24.97;37.20;100037.55;126774;1099;103468;-75
2022/07/11 10:28:50;;;;;;;11.17;3.20;;;;;;;25.17;36.64;100044.98;126748;1099;102348;-75
2022/07/11 10:31:24;;;;;;;13.03;2.80;;;;;;;25.12;36.57;100059.41;126182;1099;103607;-75
2022/07/11 10:34:06;;;;;;;4.60;2.33;;;;;;;24.99;36.88;100059.84;125569;1099;104156;-75
2022/07/11 10:36:47;;;;;;;10.20;2.57;;;;;;;24.78;36.35;100050.63;125288;1100;104307;-75
2022/07/11 10:39:24;;;;;;;;;;;;;;;24.80;36.68;100052.34;125458;1098;102048;-75
2022/07/11 10:41:57;;;;;;;6.30;2.07;;;;;;;24.81;36.33;100053.21;125303;1099;104053;-75
2022/07/11 10:44:30;;;;;;;7.97;2.52;;;;;;;24.65;36.82;100055.48;125448;1099;104281;-76
2022/07/11 10:47:26;;;;;;;9.60;3.00;;;;;;;24.50;36.92;100051.43;125419;1099;112485;-75
2022/07/11 10:50:06;;;;;;;4.53;2.23;;;;;;;24.44;36.76;100065.02;125382;1099;103225;-76
2022/07/11 10:52:51;;;;;;;13.70;2.83;;;;;;;24.31;36.37;100062.67;126358;1099;104273;-77
2022/07/11 10:55:40;;;;;;;5.60;2.10;;;;;;;24.45;36.35;100048.88;126132;1099;103840;-77
2022/07/11 10:58:47;;;;;;;6.50;2.10;;;;;;;24.68;35.85;100052.70;125966;1099;103342;-77
2022/07/11 11:04:42;;;;;;;12.60;3.20;;;;;;;24.93;35.74;100043.01;126109;1099;102553;-77
2022/07/11 11:17:53;;;;;;;3.43;1.70;;;;;;;24.72;35.67;100065.98;126045;1102;102694;-79
2022/07/11 11:21:07;;;;;;;6.37;1.90;;;;;;;24.77;34.85;100065.85;125907;1102;102237;-77
2022/07/11 11:24:12;;;;;;;6.83;1.90;;;;;;;24.88;34.73;100060.16;125971;1102;103542;-75
2022/07/11 11:30:42;;;;;;;3.10;2.00;;;;;;;25.09;34.82;100056.82;125495;1102;104162;-76
2022/07/11 11:33:26;;;;;;;11.77;2.40;;;;;;;25.14;34.96;100055.81;125477;1102;104153;-77
2022/07/11 11:36:41;;;;;;;4.83;1.70;;;;;;;25.27;34.44;100051.78;125924;1102;102518;-78
2022/07/11 11:46:16;;;;;;;3.23;1.70;;;;;;;25.25;33.19;100075.13;125426;1102;103880;-77
2022/07/11 11:49:02;;;;;;;5.07;2.00;;;;;;;25.41;33.50;100059.43;125290;1102;102954;-77
2022/07/11 11:52:06;;;;;;;7.00;1.80;;;;;;;25.68;33.47;100059.44;125445;1105;103006;-77
2022/07/11 12:05:32;;;;;;;3.63;1.40;;;;;;;25.01;32.49;100077.66;125368;1103;113139;-76
2022/07/11 12:08:28;;;;;;;6.30;2.00;;;;;;;24.80;32.35;100072.94;126118;1102;102250;-76
2022/07/11 12:11:18;;;;;;;11.08;1.98;;;;;;;24.98;32.14;100068.80;126099;1102;104144;-77
2022/07/11 12:13:59;;;;;;;8.53;2.30;;;;;;;25.18;32.24;100063.72;126032;1102;102744;-76
2022/07/11 12:16:49;;;;;;;3.23;1.80;;;;;;;25.23;32.34;100063.58;126068;1102;103318;-77
2022/07/11 12:19:44;;;;;;;3.23;1.57;;;;;;;25.19;31.75;100064.59;125939;1102;103136;-76
2022/07/11 12:22:21;;;;;;;8.50;1.90;;;;;;;25.24;31.87;100051.89;125353;1102;103592;-76
2022/07/11 12:25:04;;;;;;;2.33;1.40;;;;;;;25.39;31.83;100051.42;125575;1102;105086;-76
2022/07/11 12:27:41;;;;;;;3.83;1.80;;;;;;;25.53;32.17;100055.48;125338;1102;104623;-76
2022/07/11 12:30:25;;;;;;;10.17;2.30;;;;;;;25.49;32.06;100054.67;125188;1102;102325;-76
2022/07/11 12:33:25;;;;;;;6.07;2.13;;;;;;;25.27;31.96;100065.21;124219;1102;102547;-76
2022/07/11 12:36:09;;;;;;;8.80;1.80;;;;;;;25.14;31.53;100059.36;126027;1102;102286;-76
2022/07/11 12:38:54;;;;;;;1.60;1.50;;;;;;;25.21;31.50;100055.56;125226;1102;104309;-77
2022/07/11 12:41:42;;;;;;;4.13;1.53;;;;;;;25.29;31.75;100053.54;125353;1102;103630;-76
2022/07/11 12:48:23;;;;;;;11.10;1.57;;;;;;;24.99;31.86;100074.13;125869;1100;112275;-76
2022/07/11 12:51:04;;;;;;;2.83;1.47;;;;;;;24.93;31.28;100064.48;125319;1102;102395;-77
2022/07/11 12:53:40;;;;;;;7.20;1.67;;;;;;;25.05;31.70;100065.02;125340;1102;104173;-76
2022/07/11 12:56:25;;;;;;;6.17;1.50;;;;;;;25.27;31.56;100063.42;125199;1102;104306;-76
2022/07/11 13:02:17;;;;;;;3.30;1.70;;;;;;;25.77;31.61;100068.09;125960;1099;104130;-77
2022/07/11 13:05:36;;;;;;;;;;;;;;;;;;;;;
2022/07/11 13:08:53;;;;;;;1.50;1.40;;;;;;;25.69;31.26;100066.58;125633;1105;118110;-77
2022/07/11 13:11:50;;;;;;;1.37;1.10;;;;;;;25.70;30.75;100087.16;125543;1106;102653;-77
2022/07/11 13:22:15;;;;;;;2.67;1.27;;;;;;;25.12;31.03;100075.52;125638;1105;101873;-77
2022/07/11 13:25:19;;;;;;;1.93;1.30;;;;;;;25.04;31.06;100082.94;125607;1105;103271;-76